sensor_id;sensor_type;location;lat;lon;timestamp;P1;durP1;ratioP1;P2;durP2;ratioP2
32826;SDS011;51059;42.058;27.986;2023-03-01T00:01:25;9.80;;;6.00;;
32826;SDS011;51059;42.058;27.986;2023-03-01T00:03:53;10.83;;;5.47;;
32826;SDS011;51059;42.058;27.986;2023-03-01T00:06:20;8.70;;;5.47;;
32826;SDS011;51059;42.058;27.986;2023-03-01T00:08:46;7.97;;;5.23;;
32826;SDS011;51059;42.058;27.986;2023-03-01T00:11:16;8.17;;;5.17;;
32826;SDS011;51059;42.058;27.986;2023-03-01T00:13:43;11.13;;;5.13;;
32826;SDS011;51059;42.058;27.986;2023-03-01T00:16:11;12.83;;;6.00;;
32826;SDS011;51059;42.058;27.986;2023-03-01T00:18:38;12.77;;;5.60;;
32826;SDS011;51059;42.058;27.986;2023-03-01T00:21:04;9.93;;;5.53;;
32826;SDS011;51059;42.058;27.986;2023-03-01T00:23:30;11.40;;;5.23;;
32826;SDS011;51059;42.058;27.986;2023-03-01T00:25:56;13.30;;;5.03;;
32826;SDS011;51059;42.058;27.986;2023-03-01T00:28:22;10.23;;;5.20;;
32826;SDS011;51059;42.058;27.986;2023-03-01T00:30:47;11.93;;;6.07;;
32826;SDS011;51059;42.058;27.986;2023-03-01T00:33:13;13.37;;;6.17;;
32826;SDS011;51059;42.058;27.986;2023-03-01T00:35:38;12.03;;;5.77;;
32826;SDS011;51059;42.058;27.986;2023-03-01T00:38:04;11.30;;;6.00;;
32826;SDS011;51059;42.058;27.986;2023-03-01T00:40:31;12.80;;;6.10;;
32826;SDS011;51059;42.058;27.986;2023-03-01T00:42:58;15.93;;;6.63;;
32826;SDS011;51059;42.058;27.986;2023-03-01T00:45:24;18.17;;;6.77;;
32826;SDS011;51059;42.058;27.986;2023-03-01T00:47:50;18.80;;;7.27;;
32826;SDS011;51059;42.058;27.986;2023-03-01T00:50:17;16.43;;;7.37;;
32826;SDS011;51059;42.058;27.986;2023-03-01T00:52:43;13.87;;;7.70;;
32826;SDS011;51059;42.058;27.986;2023-03-01T00:55:09;12.67;;;7.00;;
32826;SDS011;51059;42.058;27.986;2023-03-01T00:57:35;15.97;;;6.80;;
32826;SDS011;51059;42.058;27.986;2023-03-01T01:00:01;16.30;;;7.97;;
32826;SDS011;51059;42.058;27.986;2023-03-01T01:02:26;14.80;;;8.07;;
32826;SDS011;51059;42.058;27.986;2023-03-01T01:04:52;22.17;;;8.30;;
32826;SDS011;51059;42.058;27.986;2023-03-01T01:07:17;11.77;;;6.80;;
32826;SDS011;51059;42.058;27.986;2023-03-01T01:09:45;15.30;;;7.20;;
32826;SDS011;51059;42.058;27.986;2023-03-01T01:12:11;11.27;;;7.27;;
32826;SDS011;51059;42.058;27.986;2023-03-01T01:14:36;15.30;;;7.03;;
32826;SDS011;51059;42.058;27.986;2023-03-01T01:17:02;13.90;;;6.70;;
32826;SDS011;51059;42.058;27.986;2023-03-01T01:19:28;11.90;;;6.60;;
32826;SDS011;51059;42.058;27.986;2023-03-01T01:21:53;12.10;;;6.03;;
32826;SDS011;51059;42.058;27.986;2023-03-01T01:24:19;12.73;;;6.53;;
32826;SDS011;51059;42.058;27.986;2023-03-01T01:26:45;10.60;;;6.30;;
32826;SDS011;51059;42.058;27.986;2023-03-01T01:29:11;14.37;;;7.73;;
32826;SDS011;51059;42.058;27.986;2023-03-01T01:31:37;15.23;;;7.83;;
32826;SDS011;51059;42.058;27.986;2023-03-01T01:34:05;11.67;;;7.23;;
32826;SDS011;51059;42.058;27.986;2023-03-01T01:36:32;11.10;;;7.10;;
32826;SDS011;51059;42.058;27.986;2023-03-01T01:38:58;14.57;;;7.57;;
32826;SDS011;51059;42.058;27.986;2023-03-01T01:41:24;12.00;;;7.37;;
32826;SDS011;51059;42.058;27.986;2023-03-01T01:44:10;15.40;;;8.20;;
32826;SDS011;51059;42.058;27.986;2023-03-01T01:46:49;14.70;;;7.93;;
32826;SDS011;51059;42.058;27.986;2023-03-01T01:52:19;17.07;;;8.33;;
32826;SDS011;51059;42.058;27.986;2023-03-01T01:57:19;16.87;;;8.80;;
32826;SDS011;51059;42.058;27.986;2023-03-01T01:59:49;18.30;;;8.80;;
32826;SDS011;51059;42.058;27.986;2023-03-01T02:02:17;17.73;;;8.13;;
32826;SDS011;51059;42.058;27.986;2023-03-01T02:04:43;13.03;;;7.77;;
32826;SDS011;51059;42.058;27.986;2023-03-01T02:07:19;17.83;;;7.77;;
32826;SDS011;51059;42.058;27.986;2023-03-01T02:09:48;15.20;;;7.90;;
32826;SDS011;51059;42.058;27.986;2023-03-01T02:12:19;14.50;;;7.87;;
32826;SDS011;51059;42.058;27.986;2023-03-01T02:14:46;13.30;;;7.93;;
32826;SDS011;51059;42.058;27.986;2023-03-01T02:17:12;18.83;;;7.97;;
32826;SDS011;51059;42.058;27.986;2023-03-01T02:22:32;15.07;;;7.77;;
32826;SDS011;51059;42.058;27.986;2023-03-01T02:30:21;16.37;;;8.40;;
32826;SDS011;51059;42.058;27.986;2023-03-01T02:32:47;18.27;;;8.70;;
32826;SDS011;51059;42.058;27.986;2023-03-01T02:35:14;16.33;;;8.83;;
32826;SDS011;51059;42.058;27.986;2023-03-01T02:37:41;17.23;;;9.67;;
32826;SDS011;51059;42.058;27.986;2023-03-01T02:40:09;22.23;;;11.00;;
32826;SDS011;51059;42.058;27.986;2023-03-01T02:42:42;18.67;;;10.90;;
32826;SDS011;51059;42.058;27.986;2023-03-01T02:45:20;25.57;;;11.27;;
32826;SDS011;51059;42.058;27.986;2023-03-01T02:47:46;18.90;;;10.93;;
32826;SDS011;51059;42.058;27.986;2023-03-01T02:51:04;24.40;;;11.27;;
32826;SDS011;51059;42.058;27.986;2023-03-01T02:53:22;21.50;;;11.53;;
32826;SDS011;51059;42.058;27.986;2023-03-01T02:56:11;19.97;;;10.47;;
32826;SDS011;51059;42.058;27.986;2023-03-01T02:58:39;22.97;;;11.77;;
32826;SDS011;51059;42.058;27.986;2023-03-01T03:01:11;25.47;;;11.83;;
32826;SDS011;51059;42.058;27.986;2023-03-01T03:03:38;27.27;;;11.80;;
32826;SDS011;51059;42.058;27.986;2023-03-01T03:06:04;27.90;;;11.93;;
32826;SDS011;51059;42.058;27.986;2023-03-01T03:08:29;27.53;;;12.47;;
32826;SDS011;51059;42.058;27.986;2023-03-01T03:10:55;22.20;;;11.63;;
32826;SDS011;51059;42.058;27.986;2023-03-01T03:13:21;24.40;;;13.23;;
32826;SDS011;51059;42.058;27.986;2023-03-01T03:15:47;28.07;;;14.03;;
32826;SDS011;51059;42.058;27.986;2023-03-01T03:18:14;25.77;;;13.77;;
32826;SDS011;51059;42.058;27.986;2023-03-01T03:20:41;30.00;;;14.97;;
32826;SDS011;51059;42.058;27.986;2023-03-01T03:23:07;28.10;;;13.93;;
32826;SDS011;51059;42.058;27.986;2023-03-01T03:25:33;30.33;;;14.30;;
32826;SDS011;51059;42.058;27.986;2023-03-01T03:28:02;27.33;;;12.67;;
32826;SDS011;51059;42.058;27.986;2023-03-01T03:30:35;27.37;;;14.40;;
32826;SDS011;51059;42.058;27.986;2023-03-01T03:33:02;29.17;;;14.47;;
32826;SDS011;51059;42.058;27.986;2023-03-01T03:35:32;31.63;;;14.67;;
32826;SDS011;51059;42.058;27.986;2023-03-01T03:38:09;30.00;;;14.17;;
32826;SDS011;51059;42.058;27.986;2023-03-01T03:40:44;28.87;;;14.27;;
32826;SDS011;51059;42.058;27.986;2023-03-01T03:43:14;27.23;;;14.10;;
32826;SDS011;51059;42.058;27.986;2023-03-01T03:45:43;23.00;;;11.77;;
32826;SDS011;51059;42.058;27.986;2023-03-01T03:48:09;17.57;;;11.83;;
32826;SDS011;51059;42.058;27.986;2023-03-01T03:50:35;24.60;;;13.00;;
32826;SDS011;51059;42.058;27.986;2023-03-01T03:53:04;29.03;;;14.00;;
32826;SDS011;51059;42.058;27.986;2023-03-01T03:55:32;28.13;;;12.97;;
32826;SDS011;51059;42.058;27.986;2023-03-01T03:57:59;24.90;;;12.23;;
32826;SDS011;51059;42.058;27.986;2023-03-01T04:00:31;28.13;;;13.80;;
32826;SDS011;51059;42.058;27.986;2023-03-01T04:02:58;29.90;;;14.33;;
32826;SDS011;51059;42.058;27.986;2023-03-01T04:05:24;26.10;;;13.67;;
32826;SDS011;51059;42.058;27.986;2023-03-01T04:07:49;24.33;;;13.87;;
32826;SDS011;51059;42.058;27.986;2023-03-01T04:10:26;25.90;;;14.47;;
32826;SDS011;51059;42.058;27.986;2023-03-01T04:12:52;24.37;;;13.13;;
32826;SDS011;51059;42.058;27.986;2023-03-01T04:15:21;22.93;;;12.50;;
32826;SDS011;51059;42.058;27.986;2023-03-01T04:17:49;30.83;;;14.70;;
32826;SDS011;51059;42.058;27.986;2023-03-01T04:20:18;24.03;;;13.03;;
32826;SDS011;51059;42.058;27.986;2023-03-01T04:22:52;22.33;;;12.90;;
32826;SDS011;51059;42.058;27.986;2023-03-01T04:25:22;23.93;;;12.97;;
32826;SDS011;51059;42.058;27.986;2023-03-01T04:27:48;31.83;;;15.10;;
32826;SDS011;51059;42.058;27.986;2023-03-01T04:30:14;29.47;;;14.97;;
32826;SDS011;51059;42.058;27.986;2023-03-01T04:32:39;38.23;;;15.27;;
32826;SDS011;51059;42.058;27.986;2023-03-01T04:35:05;26.90;;;13.10;;
32826;SDS011;51059;42.058;27.986;2023-03-01T04:37:30;29.03;;;14.83;;
32826;SDS011;51059;42.058;27.986;2023-03-01T04:39:56;25.93;;;14.07;;
32826;SDS011;51059;42.058;27.986;2023-03-01T04:42:22;28.20;;;14.63;;
32826;SDS011;51059;42.058;27.986;2023-03-01T04:44:48;26.77;;;13.40;;
32826;SDS011;51059;42.058;27.986;2023-03-01T04:47:16;31.50;;;14.60;;
32826;SDS011;51059;42.058;27.986;2023-03-01T04:49:42;29.00;;;13.67;;
32826;SDS011;51059;42.058;27.986;2023-03-01T04:52:07;38.73;;;14.20;;
32826;SDS011;51059;42.058;27.986;2023-03-01T04:54:34;34.87;;;15.50;;
32826;SDS011;51059;42.058;27.986;2023-03-01T04:57:01;36.77;;;15.53;;
32826;SDS011;51059;42.058;27.986;2023-03-01T04:59:27;27.10;;;14.47;;
32826;SDS011;51059;42.058;27.986;2023-03-01T05:01:54;23.23;;;13.30;;
32826;SDS011;51059;42.058;27.986;2023-03-01T05:04:21;34.10;;;15.60;;
32826;SDS011;51059;42.058;27.986;2023-03-01T05:06:47;40.60;;;16.37;;
32826;SDS011;51059;42.058;27.986;2023-03-01T05:09:13;30.60;;;15.37;;
32826;SDS011;51059;42.058;27.986;2023-03-01T05:11:38;34.80;;;14.93;;
32826;SDS011;51059;42.058;27.986;2023-03-01T05:14:04;36.07;;;16.20;;
32826;SDS011;51059;42.058;27.986;2023-03-01T05:16:31;34.23;;;14.67;;
32826;SDS011;51059;42.058;27.986;2023-03-01T05:18:57;31.83;;;14.27;;
32826;SDS011;51059;42.058;27.986;2023-03-01T05:21:23;37.63;;;15.30;;
32826;SDS011;51059;42.058;27.986;2023-03-01T05:23:49;31.73;;;15.50;;
32826;SDS011;51059;42.058;27.986;2023-03-01T05:26:15;34.73;;;14.97;;
32826;SDS011;51059;42.058;27.986;2023-03-01T05:28:42;26.70;;;13.13;;
32826;SDS011;51059;42.058;27.986;2023-03-01T05:31:08;37.47;;;13.63;;
32826;SDS011;51059;42.058;27.986;2023-03-01T05:33:38;30.13;;;12.87;;
32826;SDS011;51059;42.058;27.986;2023-03-01T05:36:05;27.23;;;14.30;;
32826;SDS011;51059;42.058;27.986;2023-03-01T05:38:32;38.47;;;15.90;;
32826;SDS011;51059;42.058;27.986;2023-03-01T05:40:58;40.40;;;15.33;;
32826;SDS011;51059;42.058;27.986;2023-03-01T05:43:23;33.23;;;15.23;;
32826;SDS011;51059;42.058;27.986;2023-03-01T05:45:49;35.47;;;15.40;;
32826;SDS011;51059;42.058;27.986;2023-03-01T05:48:14;32.03;;;15.03;;
32826;SDS011;51059;42.058;27.986;2023-03-01T05:50:41;29.03;;;15.20;;
32826;SDS011;51059;42.058;27.986;2023-03-01T05:53:12;36.80;;;15.07;;
32826;SDS011;51059;42.058;27.986;2023-03-01T05:55:41;37.70;;;14.60;;
32826;SDS011;51059;42.058;27.986;2023-03-01T05:58:09;32.67;;;15.13;;
32826;SDS011;51059;42.058;27.986;2023-03-01T06:00:36;31.93;;;16.50;;
32826;SDS011;51059;42.058;27.986;2023-03-01T06:03:02;34.23;;;15.93;;
32826;SDS011;51059;42.058;27.986;2023-03-01T06:05:28;38.37;;;16.20;;
32826;SDS011;51059;42.058;27.986;2023-03-01T06:07:54;33.60;;;15.80;;
32826;SDS011;51059;42.058;27.986;2023-03-01T06:10:21;37.53;;;15.97;;
32826;SDS011;51059;42.058;27.986;2023-03-01T06:12:47;38.20;;;17.03;;
32826;SDS011;51059;42.058;27.986;2023-03-01T06:15:14;44.37;;;16.30;;
32826;SDS011;51059;42.058;27.986;2023-03-01T06:17:41;46.87;;;16.17;;
32826;SDS011;51059;42.058;27.986;2023-03-01T06:22:35;47.60;;;17.70;;
32826;SDS011;51059;42.058;27.986;2023-03-01T06:25:00;38.20;;;17.80;;
32826;SDS011;51059;42.058;27.986;2023-03-01T06:27:26;44.80;;;16.37;;
32826;SDS011;51059;42.058;27.986;2023-03-01T06:29:51;48.67;;;17.30;;
32826;SDS011;51059;42.058;27.986;2023-03-01T06:32:17;38.90;;;16.07;;
32826;SDS011;51059;42.058;27.986;2023-03-01T06:34:43;42.57;;;17.23;;
32826;SDS011;51059;42.058;27.986;2023-03-01T06:37:09;43.50;;;18.67;;
32826;SDS011;51059;42.058;27.986;2023-03-01T06:39:34;46.83;;;19.00;;
32826;SDS011;51059;42.058;27.986;2023-03-01T06:42:00;50.13;;;17.97;;
32826;SDS011;51059;42.058;27.986;2023-03-01T06:44:26;34.77;;;16.53;;
32826;SDS011;51059;42.058;27.986;2023-03-01T06:46:52;42.57;;;18.23;;
32826;SDS011;51059;42.058;27.986;2023-03-01T06:49:17;45.07;;;17.77;;
32826;SDS011;51059;42.058;27.986;2023-03-01T06:51:44;48.20;;;19.37;;
32826;SDS011;51059;42.058;27.986;2023-03-01T06:54:11;42.03;;;16.47;;
32826;SDS011;51059;42.058;27.986;2023-03-01T06:56:37;41.03;;;17.37;;
32826;SDS011;51059;42.058;27.986;2023-03-01T06:59:02;50.40;;;19.83;;
32826;SDS011;51059;42.058;27.986;2023-03-01T07:01:28;39.07;;;18.33;;
32826;SDS011;51059;42.058;27.986;2023-03-01T07:03:55;46.57;;;17.30;;
32826;SDS011;51059;42.058;27.986;2023-03-01T07:06:21;49.73;;;17.77;;
32826;SDS011;51059;42.058;27.986;2023-03-01T07:08:47;42.13;;;16.33;;
32826;SDS011;51059;42.058;27.986;2023-03-01T07:11:12;37.83;;;16.33;;
32826;SDS011;51059;42.058;27.986;2023-03-01T07:13:38;59.00;;;16.23;;
32826;SDS011;51059;42.058;27.986;2023-03-01T07:16:04;40.00;;;15.57;;
32826;SDS011;51059;42.058;27.986;2023-03-01T07:18:30;43.80;;;18.60;;
32826;SDS011;51059;42.058;27.986;2023-03-01T07:20:56;41.97;;;14.90;;
32826;SDS011;51059;42.058;27.986;2023-03-01T07:23:21;34.70;;;13.83;;
32826;SDS011;51059;42.058;27.986;2023-03-01T07:25:53;47.07;;;15.87;;
32826;SDS011;51059;42.058;27.986;2023-03-01T07:28:19;39.17;;;16.97;;
32826;SDS011;51059;42.058;27.986;2023-03-01T07:30:45;45.33;;;18.27;;
32826;SDS011;51059;42.058;27.986;2023-03-01T07:33:11;30.87;;;14.00;;
32826;SDS011;51059;42.058;27.986;2023-03-01T07:35:36;37.67;;;17.03;;
32826;SDS011;51059;42.058;27.986;2023-03-01T07:38:02;38.57;;;13.87;;
32826;SDS011;51059;42.058;27.986;2023-03-01T07:40:27;33.53;;;13.73;;
32826;SDS011;51059;42.058;27.986;2023-03-01T07:42:56;40.20;;;14.23;;
32826;SDS011;51059;42.058;27.986;2023-03-01T07:45:23;42.53;;;14.03;;
32826;SDS011;51059;42.058;27.986;2023-03-01T07:47:50;29.97;;;12.90;;
32826;SDS011;51059;42.058;27.986;2023-03-01T07:50:17;31.30;;;14.00;;
32826;SDS011;51059;42.058;27.986;2023-03-01T07:52:44;33.53;;;12.57;;
32826;SDS011;51059;42.058;27.986;2023-03-01T07:55:10;24.63;;;11.97;;
32826;SDS011;51059;42.058;27.986;2023-03-01T07:57:36;33.60;;;11.40;;
32826;SDS011;51059;42.058;27.986;2023-03-01T08:00:02;45.63;;;13.37;;
32826;SDS011;51059;42.058;27.986;2023-03-01T08:02:28;41.87;;;13.27;;
32826;SDS011;51059;42.058;27.986;2023-03-01T08:04:53;28.07;;;12.53;;
32826;SDS011;51059;42.058;27.986;2023-03-01T08:07:19;41.07;;;12.73;;
32826;SDS011;51059;42.058;27.986;2023-03-01T08:09:44;29.63;;;12.07;;
32826;SDS011;51059;42.058;27.986;2023-03-01T08:12:10;30.03;;;12.47;;
32826;SDS011;51059;42.058;27.986;2023-03-01T08:14:35;35.97;;;12.03;;
32826;SDS011;51059;42.058;27.986;2023-03-01T08:17:01;31.93;;;11.17;;
32826;SDS011;51059;42.058;27.986;2023-03-01T08:19:28;31.80;;;11.93;;
32826;SDS011;51059;42.058;27.986;2023-03-01T08:21:53;34.80;;;11.40;;
32826;SDS011;51059;42.058;27.986;2023-03-01T08:24:19;34.50;;;10.93;;
32826;SDS011;51059;42.058;27.986;2023-03-01T08:26:45;40.63;;;11.53;;
32826;SDS011;51059;42.058;27.986;2023-03-01T08:29:10;30.27;;;11.67;;
32826;SDS011;51059;42.058;27.986;2023-03-01T08:31:38;26.43;;;10.17;;
32826;SDS011;51059;42.058;27.986;2023-03-01T08:34:05;31.33;;;11.33;;
32826;SDS011;51059;42.058;27.986;2023-03-01T08:36:35;27.20;;;10.90;;
32826;SDS011;51059;42.058;27.986;2023-03-01T08:39:02;28.57;;;10.93;;
32826;SDS011;51059;42.058;27.986;2023-03-01T08:41:29;26.13;;;9.83;;
32826;SDS011;51059;42.058;27.986;2023-03-01T08:43:55;31.90;;;11.27;;
32826;SDS011;51059;42.058;27.986;2023-03-01T08:46:31;27.40;;;11.57;;
32826;SDS011;51059;42.058;27.986;2023-03-01T08:48:58;25.87;;;10.03;;
32826;SDS011;51059;42.058;27.986;2023-03-01T08:51:24;24.13;;;9.70;;
32826;SDS011;51059;42.058;27.986;2023-03-01T08:53:50;24.13;;;9.47;;
32826;SDS011;51059;42.058;27.986;2023-03-01T08:56:16;29.93;;;9.70;;
32826;SDS011;51059;42.058;27.986;2023-03-01T08:58:46;21.57;;;9.90;;
32826;SDS011;51059;42.058;27.986;2023-03-01T09:01:14;19.03;;;8.90;;
32826;SDS011;51059;42.058;27.986;2023-03-01T09:03:42;25.87;;;10.43;;
32826;SDS011;51059;42.058;27.986;2023-03-01T09:06:08;26.47;;;8.10;;
32826;SDS011;51059;42.058;27.986;2023-03-01T09:08:35;18.53;;;8.50;;
32826;SDS011;51059;42.058;27.986;2023-03-01T09:11:03;22.23;;;8.50;;
32826;SDS011;51059;42.058;27.986;2023-03-01T09:13:29;29.77;;;9.70;;
32826;SDS011;51059;42.058;27.986;2023-03-01T09:15:57;24.67;;;9.80;;
32826;SDS011;51059;42.058;27.986;2023-03-01T09:18:23;26.10;;;9.83;;
32826;SDS011;51059;42.058;27.986;2023-03-01T09:20:49;28.63;;;9.30;;
32826;SDS011;51059;42.058;27.986;2023-03-01T09:23:14;22.03;;;9.00;;
32826;SDS011;51059;42.058;27.986;2023-03-01T09:25:40;25.70;;;9.40;;
32826;SDS011;51059;42.058;27.986;2023-03-01T09:28:05;23.07;;;9.90;;
32826;SDS011;51059;42.058;27.986;2023-03-01T09:30:31;23.90;;;9.10;;
32826;SDS011;51059;42.058;27.986;2023-03-01T09:32:57;21.80;;;9.60;;
32826;SDS011;51059;42.058;27.986;2023-03-01T09:35:22;25.73;;;10.43;;
32826;SDS011;51059;42.058;27.986;2023-03-01T09:37:48;24.20;;;9.77;;
32826;SDS011;51059;42.058;27.986;2023-03-01T09:40:16;24.37;;;10.50;;
32826;SDS011;51059;42.058;27.986;2023-03-01T09:43:05;22.87;;;10.33;;
32826;SDS011;51059;42.058;27.986;2023-03-01T09:45:38;35.33;;;10.63;;
32826;SDS011;51059;42.058;27.986;2023-03-01T09:48:10;28.33;;;10.47;;
32826;SDS011;51059;42.058;27.986;2023-03-01T09:50:40;26.70;;;11.13;;
32826;SDS011;51059;42.058;27.986;2023-03-01T09:53:09;28.77;;;12.00;;
32826;SDS011;51059;42.058;27.986;2023-03-01T09:56:00;37.47;;;12.17;;
32826;SDS011;51059;42.058;27.986;2023-03-01T09:58:34;26.80;;;11.40;;
32826;SDS011;51059;42.058;27.986;2023-03-01T10:01:10;25.20;;;11.83;;
32826;SDS011;51059;42.058;27.986;2023-03-01T10:03:44;34.67;;;11.70;;
32826;SDS011;51059;42.058;27.986;2023-03-01T10:06:22;30.37;;;12.80;;
32826;SDS011;51059;42.058;27.986;2023-03-01T10:08:54;28.77;;;12.93;;
32826;SDS011;51059;42.058;27.986;2023-03-01T10:11:23;25.83;;;11.30;;
32826;SDS011;51059;42.058;27.986;2023-03-01T10:16:40;29.53;;;12.57;;
32826;SDS011;51059;42.058;27.986;2023-03-01T10:19:15;26.27;;;11.77;;
32826;SDS011;51059;42.058;27.986;2023-03-01T10:21:46;22.37;;;11.70;;
32826;SDS011;51059;42.058;27.986;2023-03-01T10:24:12;29.90;;;13.20;;
32826;SDS011;51059;42.058;27.986;2023-03-01T10:26:55;34.43;;;13.07;;
32826;SDS011;51059;42.058;27.986;2023-03-01T10:29:44;34.47;;;13.67;;
32826;SDS011;51059;42.058;27.986;2023-03-01T10:32:28;31.83;;;14.27;;
32826;SDS011;51059;42.058;27.986;2023-03-01T10:34:54;26.20;;;13.53;;
32826;SDS011;51059;42.058;27.986;2023-03-01T10:37:20;31.13;;;15.20;;
32826;SDS011;51059;42.058;27.986;2023-03-01T10:42:28;30.50;;;14.43;;
32826;SDS011;51059;42.058;27.986;2023-03-01T10:44:55;28.47;;;14.10;;
32826;SDS011;51059;42.058;27.986;2023-03-01T10:47:22;32.47;;;13.83;;
32826;SDS011;51059;42.058;27.986;2023-03-01T10:49:54;29.27;;;14.43;;
32826;SDS011;51059;42.058;27.986;2023-03-01T10:52:24;26.57;;;14.40;;
32826;SDS011;51059;42.058;27.986;2023-03-01T10:54:59;35.40;;;14.23;;
32826;SDS011;51059;42.058;27.986;2023-03-01T10:57:28;31.70;;;14.50;;
32826;SDS011;51059;42.058;27.986;2023-03-01T11:00:15;33.63;;;15.43;;
32826;SDS011;51059;42.058;27.986;2023-03-01T11:02:48;29.70;;;15.90;;
32826;SDS011;51059;42.058;27.986;2023-03-01T11:05:22;30.30;;;15.97;;
32826;SDS011;51059;42.058;27.986;2023-03-01T11:07:53;31.43;;;16.47;;
32826;SDS011;51059;42.058;27.986;2023-03-01T11:10:24;38.37;;;16.97;;
32826;SDS011;51059;42.058;27.986;2023-03-01T11:12:50;24.97;;;15.60;;
32826;SDS011;51059;42.058;27.986;2023-03-01T11:15:24;34.47;;;16.63;;
32826;SDS011;51059;42.058;27.986;2023-03-01T11:17:52;32.63;;;16.27;;
32826;SDS011;51059;42.058;27.986;2023-03-01T11:20:32;29.80;;;15.43;;
32826;SDS011;51059;42.058;27.986;2023-03-01T11:23:04;35.03;;;14.97;;
32826;SDS011;51059;42.058;27.986;2023-03-01T11:25:42;32.97;;;14.87;;
32826;SDS011;51059;42.058;27.986;2023-03-01T11:28:13;24.27;;;13.30;;
32826;SDS011;51059;42.058;27.986;2023-03-01T11:36:01;24.77;;;12.97;;
32826;SDS011;51059;42.058;27.986;2023-03-01T11:38:32;23.40;;;13.43;;
32826;SDS011;51059;42.058;27.986;2023-03-01T11:41:02;26.70;;;13.27;;
32826;SDS011;51059;42.058;27.986;2023-03-01T11:51:20;22.10;;;10.90;;
32826;SDS011;51059;42.058;27.986;2023-03-01T11:56:45;33.90;;;14.53;;
32826;SDS011;51059;42.058;27.986;2023-03-01T12:07:21;18.83;;;9.97;;
32826;SDS011;51059;42.058;27.986;2023-03-01T12:27:18;24.70;;;10.23;;
32826;SDS011;51059;42.058;27.986;2023-03-01T12:29:55;18.27;;;10.03;;
32826;SDS011;51059;42.058;27.986;2023-03-01T12:46:04;21.33;;;9.67;;
32826;SDS011;51059;42.058;27.986;2023-03-01T12:49:04;19.37;;;8.80;;
32826;SDS011;51059;42.058;27.986;2023-03-01T12:51:38;17.50;;;8.97;;
32826;SDS011;51059;42.058;27.986;2023-03-01T12:54:11;21.17;;;9.47;;
32826;SDS011;51059;42.058;27.986;2023-03-01T12:56:40;17.87;;;8.47;;
32826;SDS011;51059;42.058;27.986;2023-03-01T12:59:15;19.83;;;9.60;;
32826;SDS011;51059;42.058;27.986;2023-03-01T13:07:30;14.90;;;8.83;;
32826;SDS011;51059;42.058;27.986;2023-03-01T13:10:32;17.80;;;9.60;;
32826;SDS011;51059;42.058;27.986;2023-03-01T13:13:20;20.40;;;9.17;;
32826;SDS011;51059;42.058;27.986;2023-03-01T13:15:47;16.40;;;9.30;;
32826;SDS011;51059;42.058;27.986;2023-03-01T13:26:04;20.10;;;9.40;;
32826;SDS011;51059;42.058;27.986;2023-03-01T13:31:11;17.23;;;9.67;;
32826;SDS011;51059;42.058;27.986;2023-03-01T13:33:55;18.50;;;9.80;;
32826;SDS011;51059;42.058;27.986;2023-03-01T13:46:53;19.27;;;9.67;;
32826;SDS011;51059;42.058;27.986;2023-03-01T13:50:01;22.87;;;10.10;;
32826;SDS011;51059;42.058;27.986;2023-03-01T13:55:14;19.93;;;9.63;;
32826;SDS011;51059;42.058;27.986;2023-03-01T14:03:52;17.43;;;9.80;;
32826;SDS011;51059;42.058;27.986;2023-03-01T14:06:25;22.77;;;10.07;;
32826;SDS011;51059;42.058;27.986;2023-03-01T14:09:03;17.40;;;9.93;;
32826;SDS011;51059;42.058;27.986;2023-03-01T14:14:29;20.00;;;9.83;;
32826;SDS011;51059;42.058;27.986;2023-03-01T14:19:46;20.47;;;10.73;;
32826;SDS011;51059;42.058;27.986;2023-03-01T14:22:16;21.80;;;10.17;;
32826;SDS011;51059;42.058;27.986;2023-03-01T14:24:50;16.67;;;9.00;;
32826;SDS011;51059;42.058;27.986;2023-03-01T14:27:18;17.87;;;9.50;;
32826;SDS011;51059;42.058;27.986;2023-03-01T14:29:44;16.07;;;10.00;;
32826;SDS011;51059;42.058;27.986;2023-03-01T14:32:29;21.40;;;9.80;;
32826;SDS011;51059;42.058;27.986;2023-03-01T14:34:57;20.80;;;9.40;;
32826;SDS011;51059;42.058;27.986;2023-03-01T14:37:33;14.47;;;9.00;;
32826;SDS011;51059;42.058;27.986;2023-03-01T14:40:01;17.47;;;8.83;;
32826;SDS011;51059;42.058;27.986;2023-03-01T14:42:29;18.17;;;9.63;;
32826;SDS011;51059;42.058;27.986;2023-03-01T14:45:00;16.83;;;9.30;;
32826;SDS011;51059;42.058;27.986;2023-03-01T14:47:31;14.37;;;8.93;;
32826;SDS011;51059;42.058;27.986;2023-03-01T14:50:01;23.47;;;9.27;;
32826;SDS011;51059;42.058;27.986;2023-03-01T14:52:39;19.60;;;9.20;;
32826;SDS011;51059;42.058;27.986;2023-03-01T14:55:16;16.33;;;8.70;;
32826;SDS011;51059;42.058;27.986;2023-03-01T14:57:44;20.17;;;9.63;;
32826;SDS011;51059;42.058;27.986;2023-03-01T15:00:22;19.53;;;10.50;;
32826;SDS011;51059;42.058;27.986;2023-03-01T15:02:53;16.43;;;9.83;;
32826;SDS011;51059;42.058;27.986;2023-03-01T15:05:29;18.13;;;9.70;;
32826;SDS011;51059;42.058;27.986;2023-03-01T15:07:59;17.73;;;8.73;;
32826;SDS011;51059;42.058;27.986;2023-03-01T15:10:27;18.83;;;8.97;;
32826;SDS011;51059;42.058;27.986;2023-03-01T15:12:54;18.27;;;9.37;;
32826;SDS011;51059;42.058;27.986;2023-03-01T15:15:21;18.83;;;9.27;;
32826;SDS011;51059;42.058;27.986;2023-03-01T15:17:52;17.63;;;8.73;;
32826;SDS011;51059;42.058;27.986;2023-03-01T15:20:23;15.77;;;9.20;;
32826;SDS011;51059;42.058;27.986;2023-03-01T15:22:51;19.47;;;9.60;;
32826;SDS011;51059;42.058;27.986;2023-03-01T15:25:27;14.37;;;9.20;;
32826;SDS011;51059;42.058;27.986;2023-03-01T15:27:55;15.70;;;9.20;;
32826;SDS011;51059;42.058;27.986;2023-03-01T15:30:23;17.57;;;9.77;;
32826;SDS011;51059;42.058;27.986;2023-03-01T15:35:45;14.83;;;9.13;;
32826;SDS011;51059;42.058;27.986;2023-03-01T15:41:26;19.33;;;9.83;;
32826;SDS011;51059;42.058;27.986;2023-03-01T15:43:52;20.13;;;10.00;;
32826;SDS011;51059;42.058;27.986;2023-03-01T15:46:34;21.27;;;9.60;;
32826;SDS011;51059;42.058;27.986;2023-03-01T15:49:03;17.20;;;9.07;;
32826;SDS011;51059;42.058;27.986;2023-03-01T15:51:34;18.00;;;9.97;;
32826;SDS011;51059;42.058;27.986;2023-03-01T15:54:02;20.00;;;9.73;;
32826;SDS011;51059;42.058;27.986;2023-03-01T15:56:38;16.83;;;9.20;;
32826;SDS011;51059;42.058;27.986;2023-03-01T15:59:03;21.77;;;10.37;;
32826;SDS011;51059;42.058;27.986;2023-03-01T16:01:30;18.47;;;10.10;;
32826;SDS011;51059;42.058;27.986;2023-03-01T16:03:59;18.93;;;10.70;;
32826;SDS011;51059;42.058;27.986;2023-03-01T16:06:24;19.80;;;9.80;;
32826;SDS011;51059;42.058;27.986;2023-03-01T16:08:50;19.67;;;10.03;;
32826;SDS011;51059;42.058;27.986;2023-03-01T16:11:17;20.43;;;10.90;;
32826;SDS011;51059;42.058;27.986;2023-03-01T16:13:43;22.90;;;11.20;;
32826;SDS011;51059;42.058;27.986;2023-03-01T16:16:11;25.27;;;11.73;;
32826;SDS011;51059;42.058;27.986;2023-03-01T16:18:40;18.60;;;11.53;;
32826;SDS011;51059;42.058;27.986;2023-03-01T16:21:06;18.40;;;11.10;;
32826;SDS011;51059;42.058;27.986;2023-03-01T16:23:33;18.43;;;11.53;;
32826;SDS011;51059;42.058;27.986;2023-03-01T16:25:59;31.47;;;12.90;;
32826;SDS011;51059;42.058;27.986;2023-03-01T16:28:25;21.97;;;12.67;;